EDDP/LEJ METAR and TAF weather

Enter ICAO airport designator
Station Type Date Time Source
EDDP METAR 2018/01/22 11:20 UTC NOAA

EDDP 221120Z 14012KT 9999 FEW011 BKN033 01/M00 Q1008 TEMPO 4500 -SN


Station Type Date Time Source
EDDP Decoded METAR 2018/01/22 11:20 UTC NOAA

Leipzig-Schkeuditz, Germany (EDDP) 51-25N 012-14E 149M
Jan 22, 2018 - 06:20 AM EST / 2018.01.22 1120 UTC
Wind: from the SE (140 degrees) at 14 MPH (12 KT):0
Visibility: greater than 7 mile(s):0
Sky conditions: mostly cloudy
Temperature: 33 F (1 C)
Windchill: 23 F (-5 C):1
Dew Point: 32 F (0 C)
Relative Humidity: 93%
Pressure (altimeter): 29.77 in. Hg (1008 hPa)
ob: EDDP 221120Z 14012KT 9999 FEW011 BKN033 01/M00 Q1008 TEMPO 4500 -SN
cycle: 11

Station Type Date Time Source
EDDP TAF 2018/01/22 12:27 UTC NOAA

TAF EDDP 221100Z 2212/2312 15012KT 9000 BKN020
TEMPO 2212/2215 3000 -SN BKN012
BECMG 2214/2216 20007KT PROB30
TEMPO 2215/2306 3000 -DZ BKN010
BECMG 2219/2222 26009KT


Example: see airport list